createdAt,value
2023-03-26T00:01:40.718Z,10.98
2023-03-26T00:04:08.789Z,10.25
2023-03-26T00:06:40.086Z,10.43
2023-03-26T00:09:10.886Z,10.68
2023-03-26T00:11:39.607Z,10.98
2023-03-26T00:14:07.466Z,10.32
2023-03-26T00:16:36.497Z,10.15
2023-03-26T00:19:04.637Z,10.25
2023-03-26T00:21:33.098Z,10.52
2023-03-26T00:24:05.185Z,10.82
2023-03-26T00:26:35.268Z,11.30
2023-03-26T00:29:04.515Z,11.30
2023-03-26T00:31:33.797Z,10.32
2023-03-26T00:34:04.052Z,10.35
2023-03-26T00:36:36.274Z,9.70
2023-03-26T00:39:05.944Z,10.00
2023-03-26T00:41:37.484Z,9.73
2023-03-26T00:44:05.823Z,10.30
2023-03-26T00:46:34.088Z,10.40
2023-03-26T00:49:04.236Z,9.73
2023-03-26T00:51:34.282Z,10.07
2023-03-26T00:54:02.566Z,9.55
2023-03-26T00:56:31.157Z,9.63
2023-03-26T00:59:00.448Z,8.80
2023-03-26T01:01:30.663Z,10.55
2023-03-26T01:04:19.607Z,9.60
2023-03-26T01:06:48.052Z,9.85
2023-03-26T01:09:19.352Z,9.73
2023-03-26T01:11:50.231Z,8.93
2023-03-26T01:14:26.238Z,8.65
2023-03-26T01:17:02.224Z,8.93
2023-03-26T01:19:53.422Z,8.60
2023-03-26T01:22:26.237Z,9.45
2023-03-26T01:24:56.841Z,10.07
2023-03-26T01:27:39.668Z,9.32
2023-03-26T01:30:34.022Z,9.45
2023-03-26T01:33:14.398Z,9.40
2023-03-26T01:35:48.893Z,9.68
2023-03-26T01:38:28.501Z,9.05
2023-03-26T01:41:05.251Z,9.00
2023-03-26T01:44:11.875Z,8.48
2023-03-26T01:46:41.079Z,9.05
2023-03-26T01:49:13.849Z,9.20
2023-03-26T01:51:43.398Z,8.80
2023-03-26T01:54:17.290Z,8.50
2023-03-26T01:57:00.095Z,9.02
2023-03-26T01:59:37.428Z,9.52
2023-03-26T02:02:17.517Z,8.73
2023-03-26T02:05:22.276Z,8.88
2023-03-26T02:08:09.909Z,8.48
2023-03-26T02:10:44.851Z,7.93
2023-03-26T02:13:14.023Z,8.52
2023-03-26T02:15:54.538Z,7.93
2023-03-26T02:18:24.420Z,8.23
2023-03-26T02:20:56.095Z,8.70
2023-03-26T02:23:24.175Z,8.48
2023-03-26T02:25:53.256Z,8.07
2023-03-26T02:28:21.931Z,8.75
2023-03-26T02:30:50.730Z,8.88
2023-03-26T02:33:18.908Z,8.93
2023-03-26T02:35:47.177Z,8.88
2023-03-26T02:38:15.241Z,8.38
2023-03-26T02:40:43.952Z,8.38
2023-03-26T02:43:11.926Z,8.25
2023-03-26T02:45:41.066Z,8.57
2023-03-26T02:48:27.320Z,8.32
2023-03-26T02:53:50.043Z,8.23
2023-03-26T02:56:41.336Z,7.53
2023-03-26T02:59:26.537Z,7.68
2023-03-26T03:02:29.619Z,8.32
2023-03-26T03:05:06.136Z,7.90
2023-03-26T03:07:38.177Z,7.43
2023-03-26T03:10:14.136Z,7.90
2023-03-26T03:13:08.377Z,7.68
2023-03-26T03:15:36.299Z,8.15
2023-03-26T03:18:04.667Z,7.78
2023-03-26T03:20:35.486Z,8.18
2023-03-26T03:23:03.736Z,7.90
2023-03-26T03:25:32.845Z,8.57
2023-03-26T03:28:01.997Z,8.45
2023-03-26T03:30:29.937Z,8.52
2023-03-26T03:33:21.651Z,8.43
2023-03-26T03:35:50.991Z,7.57
2023-03-26T03:38:20.021Z,8.20
2023-03-26T03:40:51.436Z,7.68
2023-03-26T03:43:20.163Z,8.27
2023-03-26T03:46:04.240Z,7.75
2023-03-26T03:48:39.410Z,8.20
2023-03-26T03:51:08.886Z,8.55
2023-03-26T03:53:57.743Z,7.70
2023-03-26T03:57:02.473Z,8.20
2023-03-26T03:59:31.049Z,8.27
2023-03-26T04:01:59.034Z,8.18
2023-03-26T04:04:34.653Z,8.57
2023-03-26T04:07:07.003Z,8.30
2023-03-26T04:09:53.980Z,8.18
2023-03-26T04:12:24.341Z,9.52
2023-03-26T04:15:02.409Z,10.13
2023-03-26T04:17:31.810Z,9.43
2023-03-26T04:20:13.547Z,9.65
2023-03-26T04:22:43.599Z,8.55
2023-03-26T04:25:15.785Z,8.38
2023-03-26T04:27:48.608Z,8.80
2023-03-26T04:30:23.598Z,9.48
2023-03-26T04:33:15.748Z,8.98
2023-03-26T04:35:45.831Z,10.05
2023-03-26T04:38:17.192Z,9.70
2023-03-26T04:40:48.820Z,9.63
2023-03-26T04:43:36.954Z,9.87
2023-03-26T04:46:27.034Z,9.82
2023-03-26T04:49:06.881Z,9.43
2023-03-26T04:51:42.270Z,9.55
2023-03-26T04:54:36.273Z,9.13
2023-03-26T04:57:34.379Z,8.90
2023-03-26T05:00:20.557Z,8.98
2023-03-26T05:02:58.142Z,10.52
2023-03-26T05:05:28.226Z,11.02
2023-03-26T05:07:59.391Z,9.88
2023-03-26T05:10:27.533Z,10.43
2023-03-26T05:13:01.708Z,13.23
2023-03-26T05:15:36.251Z,14.00
2023-03-26T05:18:10.986Z,14.60
2023-03-26T05:20:42.536Z,15.32
2023-03-26T05:23:11.559Z,14.23
2023-03-26T05:25:45.234Z,15.18
2023-03-26T05:28:19.572Z,15.57
2023-03-26T05:30:57.641Z,15.23
2023-03-26T05:33:29.154Z,14.95
2023-03-26T05:36:16.115Z,14.70
2023-03-26T05:39:07.002Z,15.60
2023-03-26T05:42:13.055Z,14.98
2023-03-26T05:44:56.416Z,15.05
2023-03-26T05:47:28.360Z,12.98
2023-03-26T05:49:57.440Z,11.73
2023-03-26T05:52:26.188Z,12.40
2023-03-26T05:55:13.712Z,12.98
2023-03-26T05:58:00.209Z,12.45
2023-03-26T06:03:29.495Z,12.80
2023-03-26T06:05:58.060Z,13.45
2023-03-26T06:08:40.028Z,14.02
2023-03-26T06:11:08.698Z,13.43
2023-03-26T06:13:40.138Z,12.75
2023-03-26T06:16:10.189Z,11.90
2023-03-26T06:19:11.082Z,12.65
2023-03-26T06:22:02.220Z,12.30
2023-03-26T06:24:35.174Z,12.90
2023-03-26T06:27:22.072Z,11.88
2023-03-26T06:30:09.113Z,13.10
2023-03-26T06:33:09.875Z,11.40
2023-03-26T06:35:45.750Z,10.20
2023-03-26T06:38:16.040Z,11.13
2023-03-26T06:40:44.918Z,9.15
2023-03-26T06:43:36.618Z,8.27
2023-03-26T06:46:36.910Z,9.57
2023-03-26T06:52:11.709Z,9.20
2023-03-26T06:54:50.442Z,7.00
2023-03-26T06:57:49.421Z,6.10
2023-03-26T07:00:54.097Z,5.57
2023-03-26T07:03:40.808Z,8.95
2023-03-26T07:06:27.772Z,6.50
2023-03-26T07:12:00.733Z,6.68
2023-03-26T07:14:51.486Z,5.80
2023-03-26T07:17:38.755Z,6.25
2023-03-26T07:20:20.352Z,5.93
2023-03-26T07:22:49.694Z,5.43
2023-03-26T07:25:42.628Z,6.05
2023-03-26T07:28:17.476Z,6.40
2023-03-26T07:31:18.709Z,5.65
2023-03-26T07:34:14.591Z,6.18
2023-03-26T07:37:01.515Z,6.20
2023-03-26T07:39:57.926Z,5.93
2023-03-26T07:42:47.234Z,5.97
2023-03-26T07:45:45.294Z,6.10
2023-03-26T07:48:50.093Z,6.50
2023-03-26T07:51:41.586Z,7.53
2023-03-26T07:54:29.877Z,6.97
2023-03-26T07:57:35.601Z,8.10
2023-03-26T08:00:56.235Z,8.38
2023-03-26T08:03:40.333Z,7.82
2023-03-26T08:06:26.581Z,8.95
2023-03-26T08:09:06.357Z,9.50
2023-03-26T08:12:06.995Z,8.85
2023-03-26T08:15:03.639Z,8.02
2023-03-26T08:18:03.657Z,8.20
2023-03-26T08:20:49.388Z,8.15
2023-03-26T08:23:23.853Z,7.97
2023-03-26T08:27:33.427Z,8.07
2023-03-26T08:29:56.386Z,7.50
2023-03-26T08:35:56.384Z,8.10
2023-03-26T08:38:38.678Z,7.75
2023-03-26T08:41:34.359Z,10.20
2023-03-26T08:46:49.111Z,8.25
2023-03-26T08:49:35.573Z,9.35
2023-03-26T08:52:35.189Z,7.72
2023-03-26T08:55:22.364Z,7.88
2023-03-26T08:58:09.290Z,7.70
2023-03-26T09:00:45.972Z,8.20
2023-03-26T09:03:41.672Z,7.80
2023-03-26T09:06:40.105Z,7.63
2023-03-26T09:09:37.884Z,7.85
2023-03-26T09:12:28.497Z,7.65
2023-03-26T09:15:34.155Z,7.50
2023-03-26T09:18:19.874Z,7.93
2023-03-26T09:21:12.645Z,7.78
2023-03-26T09:24:05.863Z,7.88
2023-03-26T09:26:37.898Z,8.18
2023-03-26T09:29:33.671Z,8.15
2023-03-26T09:32:17.121Z,8.05
2023-03-26T09:34:54.132Z,8.02
2023-03-26T09:38:01.292Z,7.78
2023-03-26T09:40:37.653Z,7.80
2023-03-26T09:43:30.107Z,7.47
2023-03-26T09:46:25.093Z,7.90
2023-03-26T09:49:07.712Z,8.25
2023-03-26T09:52:07.534Z,7.97
2023-03-26T09:54:44.610Z,7.40
2023-03-26T09:57:33.762Z,8.15
2023-03-26T10:00:10.712Z,7.97
2023-03-26T10:03:09.936Z,7.35
2023-03-26T10:06:16.549Z,7.82
2023-03-26T10:09:13.760Z,7.75
2023-03-26T10:11:58.217Z,7.68
2023-03-26T10:14:42.121Z,7.97
2023-03-26T10:17:29.159Z,7.72
2023-03-26T10:23:04.797Z,7.90
2023-03-26T10:25:54.054Z,8.45
2023-03-26T10:28:39.521Z,8.05
2023-03-26T10:31:44.887Z,7.72
2023-03-26T10:34:28.532Z,7.90
2023-03-26T10:37:16.675Z,7.30
2023-03-26T10:40:08.771Z,7.68
2023-03-26T10:42:44.184Z,7.50
2023-03-26T10:45:28.757Z,7.75
2023-03-26T10:48:08.587Z,8.02
2023-03-26T10:51:07.973Z,8.18
2023-03-26T10:54:03.072Z,7.53
2023-03-26T10:56:58.532Z,6.68
2023-03-26T10:59:27.909Z,7.43
2023-03-26T11:02:17.585Z,7.57
2023-03-26T11:05:00.616Z,7.13
2023-03-26T11:07:50.988Z,7.32
2023-03-26T11:10:48.293Z,7.10
2023-03-26T11:13:36.913Z,7.40
2023-03-26T11:16:26.362Z,7.47
2023-03-26T11:19:40.056Z,7.45
2023-03-26T11:22:26.271Z,6.82
2023-03-26T11:25:21.993Z,7.30
2023-03-26T11:27:53.346Z,8.23
2023-03-26T11:30:54.185Z,7.10
2023-03-26T11:33:33.575Z,7.47
2023-03-26T11:36:09.046Z,7.93
2023-03-26T11:38:44.875Z,7.97
2023-03-26T11:41:24.693Z,7.90
2023-03-26T11:44:17.153Z,7.03
2023-03-26T11:46:48.218Z,7.43
2023-03-26T11:49:21.137Z,7.43
2023-03-26T11:51:49.579Z,7.22
2023-03-26T11:54:18.159Z,7.50
2023-03-26T11:57:04.905Z,7.05
2023-03-26T11:59:56.992Z,7.05
2023-03-26T12:02:36.070Z,6.95
2023-03-26T12:05:26.750Z,7.25
2023-03-26T12:08:00.626Z,8.05
2023-03-26T12:10:39.611Z,7.47
2023-03-26T12:13:28.496Z,7.68
2023-03-26T12:18:30.373Z,7.45
2023-03-26T12:21:09.647Z,7.45
2023-03-26T12:23:58.669Z,8.23
2023-03-26T12:26:42.084Z,9.32
2023-03-26T12:29:21.047Z,8.88
2023-03-26T12:31:52.397Z,8.25
2023-03-26T12:34:23.677Z,8.43
2023-03-26T12:37:01.686Z,8.75
2023-03-26T12:40:07.882Z,8.05
2023-03-26T12:44:51.010Z,8.00
2023-03-26T12:45:24.150Z,7.93
2023-03-26T12:48:00.712Z,8.10
2023-03-26T12:51:16.597Z,8.50
2023-03-26T12:54:16.421Z,9.00
2023-03-26T12:57:19.008Z,7.93
2023-03-26T12:59:52.999Z,8.65
2023-03-26T13:02:44.895Z,7.88
2023-03-26T13:05:34.486Z,7.60
2023-03-26T13:08:23.714Z,7.80
2023-03-26T13:11:17.528Z,8.23
2023-03-26T13:14:09.408Z,8.05
2023-03-26T13:16:51.956Z,8.60
2023-03-26T13:19:35.869Z,7.72
2023-03-26T13:22:15.607Z,8.18
2023-03-26T13:24:53.013Z,7.70
2023-03-26T13:27:42.486Z,8.40
2023-03-26T13:30:19.635Z,7.30
2023-03-26T13:33:21.219Z,7.53
2023-03-26T13:36:24.497Z,8.02
2023-03-26T13:39:20.627Z,8.30
2023-03-26T13:42:15.338Z,8.23
2023-03-26T13:45:05.826Z,8.95
2023-03-26T13:47:39.575Z,8.70
2023-03-26T13:50:20.927Z,8.30
2023-03-26T13:53:03.513Z,7.82
2023-03-26T13:55:47.953Z,8.73
2023-03-26T13:58:34.404Z,8.02
2023-03-26T14:01:08.401Z,8.50
2023-03-26T14:03:54.902Z,8.45
2023-03-26T14:06:46.971Z,8.70
2023-03-26T14:09:30.830Z,8.63
2023-03-26T14:12:03.160Z,8.00
2023-03-26T14:14:48.485Z,8.68
2023-03-26T14:17:16.868Z,8.70
2023-03-26T14:20:06.869Z,8.60
2023-03-26T14:22:56.177Z,9.77
2023-03-26T14:25:42.868Z,8.93
2023-03-26T14:28:16.955Z,8.50
2023-03-26T14:30:48.742Z,8.90
2023-03-26T14:33:28.313Z,8.50
2023-03-26T14:36:06.590Z,9.60
2023-03-26T14:38:59.587Z,8.80
2023-03-26T14:41:59.491Z,9.55
2023-03-26T14:45:07.243Z,8.20
2023-03-26T14:48:06.664Z,9.07
2023-03-26T14:50:54.778Z,9.00
2023-03-26T14:53:33.818Z,9.75
2023-03-26T14:56:03.456Z,9.98
2023-03-26T14:59:08.575Z,9.55
2023-03-26T15:02:04.997Z,9.27
2023-03-26T15:04:54.557Z,9.07
2023-03-26T15:07:59.467Z,9.10
2023-03-26T15:10:52.978Z,9.38
2023-03-26T15:13:56.577Z,9.48
2023-03-26T15:16:53.720Z,8.77
2023-03-26T15:20:17.062Z,9.80
2023-03-26T15:23:10.383Z,10.00
2023-03-26T15:26:05.189Z,10.43
2023-03-26T15:29:01.728Z,10.70
2023-03-26T15:32:09.921Z,10.15
2023-03-26T15:35:21.416Z,10.75
2023-03-26T15:38:00.114Z,10.43
2023-03-26T15:40:59.725Z,10.45
2023-03-26T15:44:24.207Z,10.10
2023-03-26T15:47:41.165Z,9.95
2023-03-26T15:55:06.152Z,9.95
2023-03-26T15:58:03.784Z,9.43
2023-03-26T16:01:19.294Z,10.40
2023-03-26T16:04:50.322Z,9.88
2023-03-26T16:08:13.045Z,10.57
2023-03-26T16:11:20.173Z,13.27
2023-03-26T16:18:31.222Z,11.80
2023-03-26T16:21:39.877Z,11.52
2023-03-26T16:27:38.449Z,11.43
2023-03-26T16:30:33.542Z,12.70
2023-03-26T16:33:33.335Z,11.25
2023-03-26T16:36:36.872Z,9.65
2023-03-26T16:39:48.259Z,10.27
2023-03-26T16:42:29.464Z,9.30
2023-03-26T16:45:15.138Z,9.38
2023-03-26T16:48:01.260Z,10.70
2023-03-26T16:50:50.787Z,8.93
2023-03-26T16:53:46.824Z,9.52
2023-03-26T16:56:21.954Z,25.13
2023-03-26T16:59:03.383Z,9.35
2023-03-26T17:01:48.529Z,11.82
2023-03-26T17:04:25.173Z,9.65
2023-03-26T17:06:56.912Z,9.65
2023-03-26T17:09:31.854Z,9.90
2023-03-26T17:12:08.722Z,9.93
2023-03-26T17:15:06.271Z,10.35
2023-03-26T17:18:05.542Z,10.18
2023-03-26T17:20:52.226Z,10.90
2023-03-26T17:23:29.349Z,10.73
2023-03-26T17:26:27.205Z,11.13
2023-03-26T17:29:17.939Z,11.07
2023-03-26T17:32:01.520Z,11.52
2023-03-26T17:34:38.226Z,12.27
2023-03-26T17:37:12.017Z,12.02
2023-03-26T17:39:40.108Z,13.00
2023-03-26T17:42:26.631Z,12.32
2023-03-26T17:44:59.448Z,13.73
2023-03-26T17:47:35.025Z,12.38
2023-03-26T17:50:16.480Z,13.37
2023-03-26T17:52:51.789Z,12.85
2023-03-26T17:55:23.261Z,11.27
2023-03-26T17:57:56.967Z,13.98
2023-03-26T18:00:31.469Z,13.60
2023-03-26T18:03:07.391Z,13.93
2023-03-26T18:05:39.683Z,11.63
2023-03-26T18:08:30.324Z,11.35
2023-03-26T18:11:33.327Z,10.45
2023-03-26T18:14:16.559Z,11.95
2023-03-26T18:16:48.443Z,10.02
2023-03-26T18:19:23.190Z,8.88
2023-03-26T18:21:54.012Z,8.57
2023-03-26T18:24:40.252Z,9.45
2023-03-26T18:27:21.046Z,9.77
2023-03-26T18:30:02.831Z,9.80
2023-03-26T18:32:34.024Z,8.70
2023-03-26T18:35:17.257Z,9.63
2023-03-26T18:37:46.384Z,9.77
2023-03-26T18:40:20.348Z,9.80
2023-03-26T18:42:57.947Z,9.90
2023-03-26T18:45:30.374Z,9.43
2023-03-26T18:48:01.745Z,9.35
2023-03-26T18:50:40.218Z,9.68
2023-03-26T18:53:30.704Z,10.80
2023-03-26T18:55:59.264Z,16.65
2023-03-26T18:58:34.662Z,14.88
2023-03-26T19:01:19.943Z,10.00
2023-03-26T19:03:49.238Z,9.48
2023-03-26T19:06:17.998Z,10.20
2023-03-26T19:08:47.149Z,9.43
2023-03-26T19:11:17.937Z,8.73
2023-03-26T19:13:58.878Z,9.48
2023-03-26T19:16:33.978Z,12.50
2023-03-26T19:19:05.526Z,10.18
2023-03-26T19:21:36.452Z,9.57
2023-03-26T19:24:05.927Z,10.05
2023-03-26T19:26:34.626Z,9.45
2023-03-26T19:29:04.222Z,9.57
2023-03-26T19:31:35.588Z,9.45
2023-03-26T19:34:14.506Z,9.93
2023-03-26T19:37:23.074Z,10.10
2023-03-26T19:39:54.040Z,9.45
2023-03-26T19:42:43.918Z,10.20
2023-03-26T19:45:23.365Z,9.90
2023-03-26T19:48:03.521Z,9.90
2023-03-26T19:50:42.473Z,11.68
2023-03-26T19:53:17.963Z,16.27
2023-03-26T19:55:57.919Z,10.35
2023-03-26T19:58:27.827Z,9.85
2023-03-26T20:00:56.706Z,9.75
2023-03-26T20:03:29.800Z,9.63
2023-03-26T20:05:58.032Z,10.55
2023-03-26T20:08:29.488Z,10.00
2023-03-26T20:10:58.619Z,9.85
2023-03-26T20:13:27.504Z,9.10
2023-03-26T20:16:06.060Z,9.82
2023-03-26T20:18:35.323Z,9.23
2023-03-26T20:21:10.701Z,9.68
2023-03-26T20:23:40.536Z,9.63
2023-03-26T20:26:16.951Z,9.25
2023-03-26T20:28:48.363Z,9.02
2023-03-26T20:31:23.870Z,9.30
2023-03-26T20:33:54.701Z,8.63
2023-03-26T20:36:33.687Z,8.38
2023-03-26T20:48:37.845Z,9.05
2023-03-26T20:51:43.172Z,8.75
2023-03-26T21:00:04.928Z,9.50
2023-03-26T21:04:01.596Z,9.52
2023-03-26T21:06:32.713Z,8.90
2023-03-26T21:09:03.295Z,10.23
2023-03-26T21:11:56.067Z,9.88
2023-03-26T21:14:41.793Z,9.43
2023-03-26T21:17:20.409Z,9.10
2023-03-26T21:19:49.777Z,9.02
2023-03-26T21:22:32.967Z,9.68
2023-03-26T21:25:00.964Z,10.27
2023-03-26T21:28:00.635Z,8.98
2023-03-26T21:30:30.511Z,9.77
2023-03-26T21:32:59.972Z,10.80
2023-03-26T21:35:28.512Z,10.75
2023-03-26T21:37:58.009Z,10.50
2023-03-26T21:40:26.365Z,9.85
2023-03-26T21:42:55.130Z,9.88
2023-03-26T21:45:23.328Z,9.85
2023-03-26T21:47:51.919Z,9.98
2023-03-26T21:50:23.163Z,10.13
2023-03-26T21:52:52.258Z,9.43
2023-03-26T21:55:24.875Z,10.32
2023-03-26T21:58:02.750Z,10.00
2023-03-26T22:00:43.763Z,10.13
2023-03-26T22:03:26.113Z,9.68
2023-03-26T22:06:07.581Z,10.02
2023-03-26T22:08:41.088Z,10.40
2023-03-26T22:11:11.589Z,10.15
2023-03-26T22:13:40.020Z,9.50
2023-03-26T22:16:10.916Z,9.20
2023-03-26T22:18:39.468Z,9.30
2023-03-26T22:21:07.920Z,9.20
2023-03-26T22:23:37.371Z,9.65
2023-03-26T22:26:06.218Z,8.88
2023-03-26T22:28:34.544Z,8.13
2023-03-26T22:31:11.100Z,8.60
2023-03-26T22:33:40.428Z,9.73
2023-03-26T22:36:22.701Z,9.50
2023-03-26T22:38:54.263Z,9.07
2023-03-26T22:41:23.149Z,10.10
2023-03-26T22:43:54.893Z,10.88
2023-03-26T22:46:23.922Z,9.82
2023-03-26T22:48:52.730Z,9.52
2023-03-26T22:51:20.847Z,10.05
2023-03-26T22:53:49.275Z,9.98
2023-03-26T22:56:17.445Z,10.02
2023-03-26T22:58:47.857Z,9.80
2023-03-26T23:01:19.464Z,9.20
2023-03-26T23:03:48.104Z,9.18
2023-03-26T23:06:16.403Z,9.68
2023-03-26T23:08:44.601Z,8.80
2023-03-26T23:11:15.052Z,8.88
2023-03-26T23:13:44.776Z,8.77
2023-03-26T23:16:13.556Z,8.85
2023-03-26T23:18:42.088Z,8.90
2023-03-26T23:21:15.655Z,8.65
2023-03-26T23:23:44.080Z,9.27
2023-03-26T23:26:12.279Z,8.40
2023-03-26T23:28:41.267Z,8.57
2023-03-26T23:31:13.586Z,9.50
2023-03-26T23:33:46.412Z,9.60
2023-03-26T23:36:18.726Z,8.50
2023-03-26T23:38:48.797Z,8.95
2023-03-26T23:41:21.812Z,8.65
2023-03-26T23:43:53.413Z,8.27
2023-03-26T23:46:25.587Z,8.95
2023-03-26T23:48:55.197Z,8.80
2023-03-26T23:51:24.302Z,8.90
2023-03-26T23:53:53.853Z,8.60
2023-03-26T23:56:22.082Z,9.32
2023-03-26T23:58:50.278Z,9.02
